createdAt,value
2022-11-21T00:02:12.127Z,152.30
2022-11-21T00:04:40.377Z,158.47
2022-11-21T00:07:08.562Z,159.27
2022-11-21T00:09:36.798Z,161.33
2022-11-21T00:12:05.049Z,152.83
2022-11-21T00:14:34.611Z,159.40
2022-11-21T00:17:02.562Z,152.67
2022-11-21T00:19:31.919Z,154.90
2022-11-21T00:22:00.045Z,156.50
2022-11-21T00:24:28.305Z,158.57
2022-11-21T00:26:56.477Z,157.60
2022-11-21T00:29:24.536Z,151.97
2022-11-21T00:31:52.526Z,167.00
2022-11-21T00:34:20.522Z,161.90
2022-11-21T00:36:49.874Z,181.73
2022-11-21T00:39:18.006Z,170.73
2022-11-21T00:41:46.175Z,167.60
2022-11-21T00:44:14.203Z,160.53
2022-11-21T00:46:42.247Z,167.97
2022-11-21T00:49:10.239Z,163.33
2022-11-21T00:51:40.221Z,160.40
2022-11-21T00:54:10.130Z,174.43
2022-11-21T00:56:38.084Z,174.53
2022-11-21T00:59:06.092Z,184.63
2022-11-21T01:01:34.107Z,168.73
2022-11-21T01:04:02.123Z,179.93
2022-11-21T01:06:30.171Z,177.80
2022-11-21T01:08:58.206Z,171.13
2022-11-21T01:11:27.600Z,167.80
2022-11-21T01:13:55.666Z,171.67
2022-11-21T01:16:25.371Z,182.70
2022-11-21T01:18:53.657Z,181.50
2022-11-21T01:21:23.856Z,169.73
2022-11-21T01:23:52.479Z,169.13
2022-11-21T01:26:22.419Z,171.17
2022-11-21T01:28:52.522Z,163.37
2022-11-21T01:31:22.593Z,162.17
2022-11-21T01:33:51.325Z,163.53
2022-11-21T01:36:20.810Z,155.83
2022-11-21T01:38:51.577Z,163.83
2022-11-21T01:41:24.313Z,153.90
2022-11-21T01:43:53.725Z,153.50
2022-11-21T01:46:23.239Z,151.03
2022-11-21T01:48:56.394Z,142.50
2022-11-21T01:51:29.523Z,141.97
2022-11-21T01:54:02.507Z,149.87
2022-11-21T01:56:35.352Z,147.67
2022-11-21T01:59:05.979Z,152.33
2022-11-21T02:01:36.161Z,157.40
2022-11-21T02:04:05.716Z,150.30
2022-11-21T02:06:37.176Z,147.50
2022-11-21T02:09:06.956Z,155.20
2022-11-21T02:11:40.976Z,152.30
2022-11-21T02:14:10.635Z,164.60
2022-11-21T02:16:39.561Z,162.30
2022-11-21T02:19:09.807Z,160.27
2022-11-21T02:21:48.072Z,158.87
2022-11-21T02:24:22.116Z,150.13
2022-11-21T02:26:51.871Z,141.77
2022-11-21T02:29:20.076Z,137.57
2022-11-21T02:31:48.106Z,140.40
2022-11-21T02:34:16.151Z,129.67
2022-11-21T02:36:46.217Z,135.60
2022-11-21T02:39:20.746Z,131.47
2022-11-21T02:41:59.970Z,129.60
2022-11-21T02:44:35.005Z,130.37
2022-11-21T02:47:02.979Z,121.17
2022-11-21T02:49:38.977Z,125.93
2022-11-21T02:52:07.075Z,131.37
2022-11-21T02:54:35.055Z,125.83
2022-11-21T02:57:04.484Z,122.23
2022-11-21T02:59:32.476Z,126.07
2022-11-21T03:02:01.110Z,132.33
2022-11-21T03:04:29.515Z,125.67
2022-11-21T03:06:57.747Z,128.87
2022-11-21T03:09:25.779Z,122.63
2022-11-21T03:11:53.789Z,127.00
2022-11-21T03:14:23.123Z,126.43
2022-11-21T03:16:51.107Z,123.30
2022-11-21T03:19:19.092Z,127.03
2022-11-21T03:21:47.115Z,122.63
2022-11-21T03:24:15.108Z,124.13
2022-11-21T03:26:43.122Z,125.40
2022-11-21T03:29:11.130Z,127.57
2022-11-21T03:31:40.846Z,134.63
2022-11-21T03:34:08.971Z,135.00
2022-11-21T03:36:37.020Z,134.60
2022-11-21T03:39:05.331Z,128.90
2022-11-21T03:41:33.312Z,133.73
2022-11-21T03:44:02.732Z,133.03
2022-11-21T03:46:32.861Z,129.67
2022-11-21T03:49:02.217Z,126.27
2022-11-21T03:51:30.428Z,113.13
2022-11-21T03:53:58.542Z,118.10
2022-11-21T03:56:27.315Z,116.63
2022-11-21T03:58:55.735Z,109.47
2022-11-21T04:01:24.821Z,113.27
2022-11-21T04:03:53.176Z,108.13
2022-11-21T04:06:24.711Z,114.83
2022-11-21T04:08:52.855Z,121.27
2022-11-21T04:11:23.430Z,124.87
2022-11-21T04:13:51.477Z,130.37
2022-11-21T04:16:19.556Z,129.87
2022-11-21T04:18:47.536Z,142.87
2022-11-21T04:21:15.551Z,143.10
2022-11-21T04:23:44.933Z,168.90
2022-11-21T04:26:12.963Z,136.47
2022-11-21T04:28:40.941Z,132.67
2022-11-21T04:31:11.443Z,140.10
2022-11-21T04:33:40.233Z,131.40
2022-11-21T04:36:09.548Z,127.90
2022-11-21T04:38:38.205Z,121.10
2022-11-21T04:41:07.687Z,161.37
2022-11-21T04:43:35.704Z,139.97
2022-11-21T04:46:03.701Z,126.80
2022-11-21T04:48:32.619Z,135.73
2022-11-21T04:51:00.688Z,120.33
2022-11-21T04:53:28.692Z,114.00
2022-11-21T04:55:56.751Z,119.40
2022-11-21T04:58:26.144Z,111.33
2022-11-21T05:00:54.220Z,118.53
2022-11-21T05:03:22.377Z,111.57
2022-11-21T05:05:50.490Z,116.70
2022-11-21T05:08:18.457Z,120.90
2022-11-21T05:11:03.865Z,126.43
2022-11-21T05:13:33.250Z,118.37
2022-11-21T05:16:01.252Z,128.73
2022-11-21T05:18:29.561Z,146.97
2022-11-21T05:20:57.568Z,128.67
2022-11-21T05:23:25.554Z,138.33
2022-11-21T05:25:53.555Z,133.20
2022-11-21T05:28:21.540Z,130.47
2022-11-21T05:30:50.899Z,135.73
2022-11-21T05:33:18.976Z,160.97
2022-11-21T05:35:46.968Z,144.20
2022-11-21T05:38:14.949Z,171.63
2022-11-21T05:40:43.034Z,208.67
2022-11-21T05:43:30.019Z,223.50
2022-11-21T05:45:59.527Z,176.73
2022-11-21T05:48:27.514Z,143.37
2022-11-21T05:50:55.746Z,153.90
2022-11-21T05:53:23.763Z,204.73
2022-11-21T05:55:51.777Z,180.27
2022-11-21T05:58:19.891Z,162.97
2022-11-21T06:00:47.887Z,159.07
2022-11-21T06:03:28.228Z,149.47
2022-11-21T06:06:04.731Z,150.30
2022-11-21T06:08:34.796Z,148.73
2022-11-21T06:11:04.001Z,136.73
2022-11-21T06:13:33.725Z,119.87
2022-11-21T06:16:05.811Z,130.83
2022-11-21T06:18:36.618Z,118.67
2022-11-21T06:21:06.097Z,124.77
2022-11-21T06:23:34.369Z,108.90
2022-11-21T06:26:06.360Z,115.33
2022-11-21T06:28:35.784Z,114.63
2022-11-21T06:31:04.924Z,105.40
2022-11-21T06:33:33.070Z,104.43
2022-11-21T06:36:04.657Z,107.30
2022-11-21T06:38:32.792Z,109.97
2022-11-21T06:41:05.622Z,109.27
2022-11-21T06:43:33.736Z,112.57
2022-11-21T06:46:03.287Z,113.80
2022-11-21T06:48:31.922Z,112.03
2022-11-21T06:51:00.076Z,113.30
2022-11-21T06:53:29.404Z,104.73
2022-11-21T06:55:59.999Z,103.93
2022-11-21T06:58:29.538Z,103.60
2022-11-21T07:00:57.614Z,104.40
2022-11-21T07:03:25.956Z,103.97
2022-11-21T07:05:58.433Z,104.70
2022-11-21T07:08:27.376Z,105.27
2022-11-21T07:11:23.086Z,102.50
2022-11-21T07:13:45.094Z,97.23
2022-11-21T07:16:15.229Z,102.53
2022-11-21T07:18:44.492Z,99.60
2022-11-21T07:21:12.671Z,100.03
2022-11-21T07:23:40.858Z,109.23
2022-11-21T07:26:11.637Z,137.70
2022-11-21T07:28:39.722Z,134.20
2022-11-21T07:31:13.162Z,108.00
2022-11-21T07:33:43.219Z,93.17
2022-11-21T07:36:11.520Z,76.47
2022-11-21T07:38:42.456Z,69.47
2022-11-21T07:41:11.994Z,65.27
2022-11-21T07:43:39.990Z,65.57
2022-11-21T07:46:07.975Z,60.07
2022-11-21T07:48:35.989Z,56.77
2022-11-21T07:51:06.200Z,58.50
2022-11-21T07:53:34.267Z,57.37
2022-11-21T07:56:02.278Z,54.57
2022-11-21T07:58:31.819Z,58.97
2022-11-21T08:00:59.820Z,55.63
2022-11-21T08:03:27.798Z,56.30
2022-11-21T08:05:55.777Z,58.83
2022-11-21T08:08:23.916Z,52.30
2022-11-21T08:10:51.964Z,53.47
2022-11-21T08:13:20.038Z,55.43
2022-11-21T08:15:49.557Z,57.50
2022-11-21T08:18:20.004Z,58.87
2022-11-21T08:20:49.450Z,56.37
2022-11-21T08:23:17.681Z,57.27
2022-11-21T08:25:46.170Z,59.40
2022-11-21T08:28:15.933Z,59.57
2022-11-21T08:30:46.491Z,62.97
2022-11-21T08:33:16.365Z,63.77
2022-11-21T08:35:44.346Z,62.20
2022-11-21T08:38:12.424Z,62.30
2022-11-21T08:40:41.623Z,62.47
2022-11-21T08:43:11.319Z,63.30
2022-11-21T08:45:40.009Z,59.80
2022-11-21T08:48:12.194Z,67.60
2022-11-21T08:50:44.115Z,57.20
2022-11-21T08:53:12.149Z,59.23
2022-11-21T08:55:40.156Z,57.73
2022-11-21T08:58:08.148Z,58.07
2022-11-21T09:00:36.179Z,55.20
2022-11-21T09:03:05.793Z,55.57
2022-11-21T09:05:34.071Z,52.73
2022-11-21T09:08:03.442Z,54.30
2022-11-21T09:10:31.456Z,47.87
2022-11-21T09:13:00.090Z,43.73
2022-11-21T09:15:45.351Z,46.63
2022-11-21T09:18:13.615Z,46.83
2022-11-21T09:20:43.439Z,45.77
2022-11-21T09:23:14.747Z,47.10
2022-11-21T09:25:43.124Z,51.73
2022-11-21T09:28:13.387Z,47.13
2022-11-21T09:30:42.237Z,46.57
2022-11-21T09:33:13.313Z,50.43
2022-11-21T09:35:41.816Z,46.10
2022-11-21T09:38:10.351Z,48.80
2022-11-21T09:40:44.377Z,46.73
2022-11-21T09:43:36.063Z,47.93
2022-11-21T09:46:10.421Z,49.70
2022-11-21T09:48:49.621Z,47.43
2022-11-21T09:51:20.483Z,46.47
2022-11-21T09:53:58.147Z,48.57
2022-11-21T09:56:32.177Z,45.37
2022-11-21T09:59:13.765Z,50.40
2022-11-21T10:01:41.771Z,46.47
2022-11-21T10:04:10.036Z,51.07
2022-11-21T10:06:42.643Z,51.30
2022-11-21T10:09:23.668Z,50.77
2022-11-21T10:12:20.473Z,52.30
2022-11-21T10:15:04.867Z,55.63
2022-11-21T10:17:45.487Z,52.30
2022-11-21T10:20:25.826Z,51.93
2022-11-21T10:23:09.868Z,55.33
2022-11-21T10:25:39.070Z,54.17
2022-11-21T10:28:16.519Z,55.10
2022-11-21T10:30:46.947Z,55.67
2022-11-21T10:33:22.252Z,54.23
2022-11-21T10:35:54.581Z,53.67
2022-11-21T10:38:24.520Z,51.70
2022-11-21T10:40:56.112Z,57.00
2022-11-21T10:43:52.487Z,58.07
2022-11-21T10:46:20.537Z,51.83
2022-11-21T10:48:56.458Z,54.90
2022-11-21T10:51:36.739Z,54.23
2022-11-21T10:54:24.449Z,55.43
2022-11-21T10:56:55.504Z,48.87
2022-11-21T10:59:30.741Z,50.53
2022-11-21T11:02:01.039Z,51.50
2022-11-21T11:04:35.341Z,54.60
2022-11-21T11:07:22.849Z,56.30
2022-11-21T11:09:52.364Z,52.73
2022-11-21T11:12:48.874Z,49.20
2022-11-21T11:15:24.351Z,54.47
2022-11-21T11:17:58.005Z,53.93
2022-11-21T11:20:38.142Z,52.73
2022-11-21T11:23:26.587Z,55.00
2022-11-21T11:25:56.571Z,56.57
2022-11-21T11:28:25.318Z,64.13
2022-11-21T11:30:56.561Z,60.80
2022-11-21T11:33:36.415Z,61.60
2022-11-21T11:36:13.800Z,63.30
2022-11-21T11:38:48.467Z,59.90
2022-11-21T11:42:00.639Z,60.80
2022-11-21T11:44:55.492Z,61.27
2022-11-21T11:47:32.556Z,64.20
2022-11-21T11:50:12.995Z,60.53
2022-11-21T11:52:51.534Z,59.57
2022-11-21T11:55:24.990Z,58.87
2022-11-21T11:57:55.908Z,59.20
2022-11-21T12:00:41.568Z,57.80
2022-11-21T12:03:16.570Z,65.30
2022-11-21T12:05:54.289Z,57.67
2022-11-21T12:08:43.454Z,59.83
2022-11-21T12:11:43.909Z,59.23
2022-11-21T12:14:48.701Z,58.80
2022-11-21T12:17:21.070Z,56.50
2022-11-21T12:19:53.407Z,56.43
2022-11-21T12:22:21.782Z,56.37
2022-11-21T12:24:50.007Z,56.67
2022-11-21T12:27:29.392Z,55.60
2022-11-21T12:30:29.771Z,56.00
2022-11-21T12:33:08.788Z,54.53
2022-11-21T12:35:48.076Z,56.17
2022-11-21T12:38:32.012Z,55.33
2022-11-21T12:41:32.257Z,55.77
2022-11-21T12:44:12.099Z,53.37
2022-11-21T12:46:50.123Z,56.20
2022-11-21T12:49:49.109Z,56.60
2022-11-21T12:52:47.467Z,53.77
2022-11-21T12:55:40.127Z,57.07
2022-11-21T12:58:17.377Z,57.53
2022-11-21T13:00:56.310Z,59.97
2022-11-21T13:03:40.012Z,56.33
2022-11-21T13:06:16.427Z,57.43
2022-11-21T13:08:48.538Z,57.40
2022-11-21T13:11:49.399Z,55.23
2022-11-21T13:14:24.312Z,55.87
2022-11-21T13:17:03.668Z,50.30
2022-11-21T13:19:43.385Z,58.83
2022-11-21T13:22:43.738Z,59.73
2022-11-21T13:25:14.686Z,60.53
2022-11-21T13:27:43.484Z,59.13
2022-11-21T13:30:23.793Z,61.93
2022-11-21T13:32:53.377Z,57.73
2022-11-21T13:36:04.001Z,56.93
2022-11-21T13:38:32.419Z,55.67
2022-11-21T13:41:22.321Z,58.87
2022-11-21T13:43:50.368Z,58.47
2022-11-21T13:46:58.975Z,56.40
2022-11-21T13:49:32.681Z,57.53
2022-11-21T13:52:05.444Z,57.57
2022-11-21T13:55:05.909Z,60.40
2022-11-21T13:57:59.341Z,61.63
2022-11-21T14:00:39.226Z,59.57
2022-11-21T14:03:42.480Z,61.07
2022-11-21T14:06:33.201Z,58.50
2022-11-21T14:09:27.262Z,59.03
2022-11-21T14:11:59.338Z,60.00
2022-11-21T14:14:36.299Z,60.57
2022-11-21T14:17:33.934Z,63.23
2022-11-21T14:20:09.064Z,65.40
2022-11-21T14:22:47.914Z,71.87
2022-11-21T14:25:19.457Z,71.00
2022-11-21T14:27:49.955Z,66.07
2022-11-21T14:30:32.570Z,66.33
2022-11-21T14:33:18.747Z,65.67
2022-11-21T14:35:49.613Z,62.07
2022-11-21T14:38:17.955Z,66.37
2022-11-21T14:40:45.955Z,72.17
2022-11-21T14:43:31.130Z,66.97
2022-11-21T14:46:00.857Z,67.93
2022-11-21T14:48:30.624Z,66.23
2022-11-21T14:51:01.888Z,68.90
2022-11-21T14:53:30.138Z,61.53
2022-11-21T14:56:01.432Z,61.87
2022-11-21T14:58:29.856Z,66.13
2022-11-21T15:01:07.683Z,67.17
2022-11-21T15:03:36.187Z,64.37
2022-11-21T15:06:08.253Z,68.07
2022-11-21T15:11:33.427Z,72.27
2022-11-21T15:14:16.929Z,83.37
2022-11-21T15:16:49.042Z,77.43
2022-11-21T15:19:24.403Z,76.43
2022-11-21T15:21:54.111Z,71.07
2022-11-21T15:24:31.290Z,75.47
2022-11-21T15:26:59.911Z,77.13
2022-11-21T15:29:30.620Z,71.27
2022-11-21T15:32:15.853Z,76.63
2022-11-21T15:35:01.497Z,71.63
2022-11-21T15:37:29.602Z,72.57
2022-11-21T15:39:59.131Z,71.03
2022-11-21T15:42:37.192Z,71.13
2022-11-21T15:45:23.819Z,77.57
2022-11-21T15:47:53.259Z,75.87
2022-11-21T15:50:27.744Z,75.67
2022-11-21T15:52:55.889Z,82.43
2022-11-21T15:55:28.209Z,84.07
2022-11-21T15:57:56.280Z,80.20
2022-11-21T16:00:24.570Z,80.83
2022-11-21T16:02:53.914Z,77.93
2022-11-21T16:05:21.933Z,84.87
2022-11-21T16:07:50.013Z,84.07
2022-11-21T16:10:27.580Z,79.50
2022-11-21T16:12:56.318Z,81.83
2022-11-21T16:15:24.707Z,80.50
2022-11-21T16:17:54.288Z,86.73
2022-11-21T16:20:22.404Z,75.07
2022-11-21T16:22:50.464Z,84.80
2022-11-21T16:25:21.513Z,79.23
2022-11-21T16:27:49.617Z,80.37
2022-11-21T16:30:17.754Z,83.00
2022-11-21T16:32:46.944Z,80.90
2022-11-21T16:35:16.660Z,80.60
2022-11-21T16:37:44.644Z,77.77
2022-11-21T16:40:14.270Z,81.60
2022-11-21T16:42:42.637Z,81.60
2022-11-21T16:45:12.655Z,80.87
2022-11-21T16:47:44.395Z,87.37
2022-11-21T16:50:18.784Z,86.30
2022-11-21T16:52:46.750Z,122.27
2022-11-21T16:55:17.378Z,94.90
2022-11-21T16:57:45.385Z,86.17
2022-11-21T17:00:13.967Z,85.13
2022-11-21T17:02:44.865Z,82.53
2022-11-21T17:05:12.921Z,75.80
2022-11-21T17:07:42.465Z,82.00
2022-11-21T17:10:11.089Z,80.90
2022-11-21T17:12:39.608Z,81.03
2022-11-21T17:15:10.479Z,73.97
2022-11-21T17:17:38.921Z,70.90
2022-11-21T17:20:11.346Z,69.97
2022-11-21T17:22:39.466Z,76.50
2022-11-21T17:25:09.939Z,79.53
2022-11-21T17:27:38.732Z,79.73
2022-11-21T17:30:08.348Z,78.10
2022-11-21T17:32:36.820Z,76.13
2022-11-21T17:35:05.519Z,69.47
2022-11-21T17:37:33.586Z,68.63
2022-11-21T17:40:01.611Z,71.60
2022-11-21T17:42:31.014Z,80.30
2022-11-21T17:44:59.020Z,88.17
2022-11-21T17:47:27.066Z,97.40
2022-11-21T17:49:55.444Z,97.60
2022-11-21T17:52:23.468Z,97.60
2022-11-21T17:54:51.479Z,94.93
2022-11-21T17:57:19.481Z,94.13
2022-11-21T17:59:48.832Z,85.90
2022-11-21T18:02:18.080Z,88.53
2022-11-21T18:04:47.157Z,79.60
2022-11-21T18:07:15.252Z,79.53
2022-11-21T18:09:43.266Z,76.67
2022-11-21T18:12:11.315Z,75.77
2022-11-21T18:14:39.351Z,66.83
2022-11-21T18:17:08.708Z,65.77
2022-11-21T18:19:36.732Z,64.13
2022-11-21T18:22:04.743Z,68.30
2022-11-21T18:24:33.021Z,62.30
2022-11-21T18:27:01.056Z,76.90
2022-11-21T18:29:36.338Z,79.93
2022-11-21T18:32:05.293Z,75.87
2022-11-21T18:34:35.003Z,68.83
2022-11-21T18:37:03.012Z,66.33
2022-11-21T18:39:31.207Z,71.70
2022-11-21T18:41:59.272Z,71.67
2022-11-21T18:44:27.256Z,70.33
2022-11-21T18:46:55.260Z,72.13
2022-11-21T18:49:23.571Z,69.43
2022-11-21T18:51:52.905Z,72.00
2022-11-21T18:54:20.958Z,69.87
2022-11-21T18:56:51.438Z,69.27
2022-11-21T18:59:19.480Z,70.27
2022-11-21T19:01:47.537Z,68.10
2022-11-21T19:04:15.786Z,70.03
2022-11-21T19:06:43.776Z,66.00
2022-11-21T19:09:14.807Z,67.17
2022-11-21T19:11:42.815Z,71.33
2022-11-21T19:14:10.843Z,73.30
2022-11-21T19:16:38.897Z,70.27
2022-11-21T19:21:55.688Z,71.10
2022-11-21T19:24:25.139Z,65.80
2022-11-21T19:26:53.167Z,69.77
2022-11-21T19:29:21.170Z,71.10
2022-11-21T19:31:49.162Z,74.00
2022-11-21T19:34:17.874Z,78.63
2022-11-21T19:36:46.559Z,80.40
2022-11-21T19:39:14.745Z,74.97
2022-11-21T19:41:44.192Z,76.03
2022-11-21T19:44:12.482Z,88.13
2022-11-21T19:46:42.176Z,79.67
2022-11-21T19:49:12.494Z,79.27
2022-11-21T19:51:43.280Z,83.20
2022-11-21T19:54:13.175Z,81.37
2022-11-21T19:56:45.674Z,82.33
2022-11-21T19:59:14.910Z,99.13
2022-11-21T20:01:44.824Z,112.67
2022-11-21T20:04:15.054Z,126.40
2022-11-21T20:06:45.910Z,152.03
2022-11-21T20:09:15.659Z,144.47
2022-11-21T20:11:47.054Z,137.60
2022-11-21T20:14:21.551Z,125.73
2022-11-21T20:16:52.749Z,110.40
2022-11-21T20:19:22.694Z,101.37
2022-11-21T20:21:53.771Z,102.40
2022-11-21T20:24:23.087Z,91.80
2022-11-21T20:26:53.638Z,81.83
2022-11-21T20:29:21.742Z,80.30
2022-11-21T20:31:49.980Z,79.00
2022-11-21T20:34:17.995Z,72.67
2022-11-21T20:36:46.585Z,71.47
2022-11-21T20:39:15.867Z,68.67
2022-11-21T20:41:45.259Z,72.60
2022-11-21T20:47:05.421Z,74.50
2022-11-21T20:49:34.433Z,72.20
2022-11-21T20:53:43.800Z,82.93
2022-11-21T20:54:50.725Z,89.70
2022-11-21T20:57:18.756Z,88.33
2022-11-21T20:59:48.203Z,86.47
2022-11-21T21:02:16.219Z,83.40
2022-11-21T21:04:44.492Z,84.57
2022-11-21T21:07:12.702Z,84.90
2022-11-21T21:09:42.805Z,94.83
2022-11-21T21:12:10.822Z,86.60
2022-11-21T21:14:39.033Z,85.17
2022-11-21T21:17:08.407Z,87.97
2022-11-21T21:19:36.420Z,89.77
2022-11-21T21:22:05.104Z,90.13
2022-11-21T21:24:33.200Z,90.37
2022-11-21T21:27:01.170Z,93.47
2022-11-21T21:29:29.475Z,98.73
2022-11-21T21:31:57.843Z,105.03
2022-11-21T21:34:27.424Z,101.57
2022-11-21T21:36:55.764Z,113.07
2022-11-21T21:39:23.761Z,121.87
2022-11-21T21:41:51.771Z,124.17
2022-11-21T21:44:19.793Z,125.07
2022-11-21T21:46:47.945Z,127.67
2022-11-21T21:49:15.954Z,128.40
2022-11-21T21:51:45.327Z,141.60
2022-11-21T21:54:18.500Z,148.73
2022-11-21T21:56:47.099Z,151.83
2022-11-21T21:59:17.872Z,213.80
2022-11-21T22:01:46.514Z,167.83
2022-11-21T22:04:14.602Z,162.67
2022-11-21T22:06:42.608Z,156.47
2022-11-21T22:09:12.059Z,146.97
2022-11-21T22:11:40.294Z,146.63
2022-11-21T22:14:11.184Z,137.83
2022-11-21T22:16:42.007Z,150.47
2022-11-21T22:19:10.402Z,146.57
2022-11-21T22:21:39.660Z,136.67
2022-11-21T22:24:30.803Z,134.40
2022-11-21T22:26:58.938Z,130.73
2022-11-21T22:29:27.080Z,109.70
2022-11-21T22:31:55.124Z,90.83
2022-11-21T22:34:23.447Z,74.33
2022-11-21T22:36:51.467Z,80.37
2022-11-21T22:39:21.007Z,75.87
2022-11-21T22:41:48.959Z,72.10
2022-11-21T22:44:17.476Z,76.43
2022-11-21T22:46:45.483Z,86.17
2022-11-21T22:49:14.293Z,75.47
2022-11-21T22:51:42.250Z,85.33
2022-11-21T22:54:12.923Z,84.47
2022-11-21T22:56:42.711Z,82.37
2022-11-21T22:59:13.517Z,84.83
2022-11-21T23:01:41.573Z,91.10
2022-11-21T23:04:13.260Z,94.10
2022-11-21T23:06:44.266Z,104.03
2022-11-21T23:09:12.400Z,102.47
2022-11-21T23:11:41.133Z,94.77
2022-11-21T23:14:10.681Z,100.10
2022-11-21T23:16:39.215Z,96.77
2022-11-21T23:19:07.348Z,97.37
2022-11-21T23:21:35.346Z,94.33
2022-11-21T23:24:03.667Z,94.40
2022-11-21T23:26:31.608Z,95.97
2022-11-21T23:29:05.052Z,87.37
2022-11-21T23:31:37.501Z,88.97
2022-11-21T23:34:05.958Z,79.10
2022-11-21T23:36:34.025Z,82.03
2022-11-21T23:39:02.495Z,81.20
2022-11-21T23:41:30.825Z,76.67
2022-11-21T23:43:59.999Z,80.77
2022-11-21T23:46:28.523Z,74.93
2022-11-21T23:48:57.956Z,75.70
2022-11-21T23:51:26.016Z,79.93
2022-11-21T23:53:54.115Z,80.50
2022-11-21T23:56:22.132Z,86.80
2022-11-21T23:58:50.414Z,89.83
